Aérodrome :
LOGIN :

S'inscrire | Disclaimer

   EN    FR    IT 

 










Légende :    VFR   VFR Marginal   IFR   IFR Intensif   IFR Très Intensif
Visi : 
Plafond : 
>= 8 km
>= 3000ft
5 à 8 km
1000 à 3000 ft
1500m à 5 km
500 à 1000 ft
800 à 1500m
200 à 500 ft
< 800m
< 200 ft
Symboles :   Orages  Brouillard  Fortes neiges  Fortes précipitations  Vent > 20 kt
SIGMETs :   Divers  Orages  Givrage  Turbulence  Onde Orograph.  Cendres Volcan.







- Altitude de l'aérodrome : 16 ft
- Code IATA : EAS


LESO - San Sebastian Fuenterrabia

DERNIER METAR :
  • 142230Z AUTO 24011KT 200V300 9999 FEW032/// SCT039/// BKN069/// 14/08 Q1011

METARs EXPIRÉS :
  • 142200Z AUTO 23011KT 200V280 9999 BKN036/// BKN045/// 13/08 Q1011
  • 142130Z AUTO 25007KT 200V300 9999 SCT035/// OVC059/// 13/09 Q1011
  • 142100Z AUTO 25008G19KT 210V330 9999 FEW034/// BKN050/// 13/09 Q1011
  • 142030Z 24012G26KT 200V290 9999 -RA FEW020 BKN030 13/09 Q1012
  • 142023Z 25013KT 200V320 9999 -RA FEW020 BKN030 13/09 Q1012
  • 142006Z 24012G26KT 200V290 2000 RA SCT010 BKN025 13/10 Q1012
  • 141930Z 23010KT 170V260 7000 SCT012 BKN030 13/10 Q1012

TAF TAF LESO
Valide du 14 à 18h jusqu'au 15 à 18h UTC


141700Z 1418/1518 28009KT 9999 SCT018 BKN030 TX13/1514Z TN07/1506Z
TEMPO 1418/1518 28015G25KT 3000 RA BKN010
TEMPO 1503/1518 30018G35KT 3000 SHRA SCT030TCU
PROB40
TEMPO 1503/1512 1000 +SHRA TSRA SCT025CB
Pas de NOTAMs connus pour ce terrain.



MET'MAP, la Météo Aéronautique d'un coup d'oeil ! - Copyright ORBIFLY Décembre 2007 - Disclaimer

ORBIFLY MET'MAP TEAM :

Programmation & Développement : Alexandra Zaïnal
Conception & Développement : Baudouin d'Aumeries
Co-Programmation & Développement : Marc-Olivier Méhu
Soutien technique & logistique : Manuel Goepfert

Contact : metmap@orbifly.com




SOURCES & CREDITS :

   NOAA